gordon.dewis.ca - Random musings from Gordon

Subscribe

Ick

November 27, 2015 @ 13:27 By: gordon Category: Weather

There is some magically crappy weather in store for this afternoon/evening:

TAF CYOW 271754Z 2718/2818 22015G25KT P6SM -RA OVC040 TEMPO 2718/2721 5SM -RA BR OVC020
BECMG 2718/2720 22010KT
FM272100 32010KT 4SM -RA BR BKN008 OVC015 TEMPO 2721/2723 P6SM -RA OVC020
FM272300 33012G22KT P6SM -RAPL OVC012 TEMPO 2723/2802 2SM -SN BKN005 OVC010
FM280300 34012KT P6SM OVC020 BECMG 2804/2806 FEW020 BKN160
FM280600 34010KT P6SM FEW020 BKN160
FM280900 35008KT P6SM SKC
RMK NXT FCST BY 272100Z=

Rain, rain with pellets, and snow. And wind. And with the air temperature hovering just above freezing it wouldn’t take much to add some freezing rain to the mix.

Leave a Reply

CAPTCHA
*